Time;durP1;ratioP1;P1;durP2;ratioP2;P2;SDS_P1;SDS_P2;PMS_P1;PMS_P2;Temp;Humidity;BMP_temperature;BMP_pressure;BME280_temperature;BME280_humidity;BME280_pressure;Samples;Min_cycle;Max_cycle;Signal;HPM_P1;HPM_P2
2024/01/19 00:28:34;;;;;;;;;;;;;;;;;;;;;
2024/01/19 00:34:45;;;;;;;18.58;12.18;;;-2.40;99.90;;;;;;6001530;23;20180;-91
2024/01/19 00:40:25;;;;;;;22.75;10.95;;;-2.50;99.90;;;;;;6127937;23;20245;-92
2024/01/19 00:43:25;;;;;;;15.45;11.27;;;-2.60;99.90;;;;;;6135376;23;20200;-92
2024/01/19 00:46:34;;;;;;;17.70;11.27;;;-2.40;99.90;;;;;;6133551;23;20173;-92
2024/01/19 00:49:02;;;;;;;17.45;11.35;;;-2.60;99.90;;;;;;6133739;23;20192;-93
2024/01/19 00:51:33;;;;;;;18.40;12.35;;;-2.60;99.90;;;;;;6135649;23;20176;-91
2024/01/19 00:54:01;;;;;;;16.58;12.25;;;-2.60;99.90;;;;;;6133043;23;20252;-92
2024/01/19 00:56:28;;;;;;;17.85;10.98;;;-2.20;99.90;;;;;;6132990;23;20197;-92
2024/01/19 00:58:56;;;;;;;16.38;12.30;;;-2.00;99.90;;;;;;6132767;23;20169;-92
2024/01/19 01:01:25;;;;;;;21.75;11.48;;;-2.00;99.90;;;;;;6135310;23;20715;-92
2024/01/19 01:13:28;;;;;;;15.90;11.48;;;-2.60;99.90;;;;;;6152308;23;20221;-91
2024/01/19 01:16:26;;;;;;;24.42;12.55;;;-2.70;99.90;;;;;;6153862;23;20181;-91
2024/01/19 01:33:53;;;;;;;16.17;11.35;;;-3.10;99.90;;;;;;6154153;23;20198;-91
2024/01/19 01:37:01;;;;;;;21.08;13.25;;;-3.20;99.90;;;;;;6100878;23;20205;-92
2024/01/19 02:15:51;;;;;;;18.00;11.80;;;-3.00;99.90;;;;;;5956568;23;20656;-92
2024/01/19 02:18:47;;;;;;;17.08;11.43;;;-3.00;99.90;;;;;;6019153;23;20286;-93
2024/01/19 02:38:22;;;;;;;18.25;9.75;;;-3.10;99.90;;;;;;6144555;23;20185;-91
2024/01/19 02:44:59;;;;;;;15.55;10.13;;;-3.20;99.90;;;;;;6131872;23;20225;-90
2024/01/19 02:47:46;;;;;;;12.05;9.10;;;-3.20;99.90;;;;;;6145149;23;20177;-90
2024/01/19 02:50:36;;;;;;;14.40;9.43;;;-3.20;99.90;;;;;;6155285;23;20168;-89
2024/01/19 02:56:22;;;;;;;9.63;8.43;;;-3.10;99.90;;;;;;6145717;23;20208;-91
2024/01/19 02:59:05;;;;;;;13.05;8.70;;;-3.10;99.90;;;;;;6137342;23;20200;-87
2024/01/19 03:01:50;;;;;;;18.63;9.40;;;-3.00;99.90;;;;;;6155186;23;20153;-89
2024/01/19 03:04:25;;;;;;;12.02;9.32;;;-3.00;99.90;;;;;;6154831;23;20188;-88
2024/01/19 03:07:03;;;;;;;15.63;9.25;;;-3.00;99.90;;;;;;6149813;23;20165;-90
2024/01/19 03:09:46;;;;;;;13.00;9.27;;;-2.80;99.90;;;;;;6139430;23;20257;-90
2024/01/19 03:12:18;;;;;;;12.00;8.80;;;-2.70;62.00;;;;;;6143842;23;20160;-90
2024/01/19 03:15:05;;;;;;;12.60;8.10;;;-2.70;17.30;;;;;;6137090;23;20177;-90
2024/01/19 03:17:36;;;;;;;14.90;8.18;;;-2.70;6.00;;;;;;6135676;23;20180;-90
2024/01/19 03:20:14;;;;;;;16.27;9.52;;;-2.60;1.00;;;;;;6144373;23;20204;-89
2024/01/19 03:25:46;;;;;;;11.27;6.50;;;-2.50;1.00;;;;;;6154972;23;20170;-90
2024/01/19 03:28:20;;;;;;;9.77;7.22;;;-2.70;1.00;;;;;;6143539;23;20236;-90
2024/01/19 03:30:53;;;;;;;10.93;6.93;;;-2.60;1.00;;;;;;6148642;23;20260;-89
2024/01/19 03:33:45;;;;;;;9.48;7.43;;;-2.60;1.00;;;;;;6142799;23;20232;-90
2024/01/19 03:36:18;;;;;;;11.95;6.70;;;-2.50;1.00;;;;;;6138902;23;20199;-90
2024/01/19 03:59:52;;;;;;;7.25;6.55;;;-2.30;1.00;;;;;;6142455;23;20197;-90
2024/01/19 04:09:16;;;;;;;8.93;6.07;;;-2.20;99.90;;;;;;6130828;23;20660;-90
2024/01/19 04:16:10;;;;;;;7.15;4.97;;;-2.10;99.90;;;;;;6067680;23;20233;-91
2024/01/19 04:23:49;;;;;;;10.52;4.80;;;-2.00;99.90;;;;;;6108114;23;20209;-91
2024/01/19 04:27:12;;;;;;;;;;;;;;;;;;;;;
2024/01/19 04:51:58;;;;;;;;;;;;;;;;;;;;;
2024/01/19 05:02:05;;;;;;;;;;;;;;;;;;;;;
2024/01/19 05:04:50;;;;;;;7.30;4.57;;;-1.60;99.90;;;;;;6088577;23;20226;-92
2024/01/19 05:56:28;;;;;;;7.93;4.32;;;-1.40;60.30;;;;;;6133447;23;20193;-82
2024/01/19 05:58:55;;;;;;;9.63;6.03;;;-1.40;68.30;;;;;;6155514;23;20145;-82
2024/01/19 06:01:22;;;;;;;7.40;4.20;;;-1.40;99.90;;;;;;6150944;23;20632;-83
2024/01/19 06:03:49;;;;;;;5.20;3.28;;;-1.40;99.90;;;;;;6145843;23;20233;-85
2024/01/19 06:06:15;;;;;;;6.93;3.50;;;-1.40;99.90;;;;;;6138956;23;20228;-86
2024/01/19 06:08:43;;;;;;;8.90;4.60;;;-1.50;99.90;;;;;;6138569;23;20204;-85
2024/01/19 06:11:10;;;;;;;5.93;3.47;;;-1.50;99.90;;;;;;6149193;23;20184;-84
2024/01/19 06:13:39;;;;;;;7.13;3.85;;;-1.60;99.90;;;;;;6142766;23;20172;-83
2024/01/19 06:16:06;;;;;;;6.03;4.05;;;-1.60;99.90;;;;;;6152799;23;20208;-84
2024/01/19 06:18:34;;;;;;;4.47;4.07;;;-1.60;99.90;;;;;;6152981;23;20519;-84
2024/01/19 06:21:01;;;;;;;4.80;3.80;;;-1.60;99.90;;;;;;6152403;23;20161;-84
2024/01/19 06:23:28;;;;;;;3.80;3.45;;;-1.60;99.90;;;;;;6153390;23;20165;-84
2024/01/19 06:25:55;;;;;;;4.32;3.80;;;-1.50;99.90;;;;;;6142227;23;20285;-84
2024/01/19 06:28:22;;;;;;;7.70;4.07;;;-1.60;99.90;;;;;;6139606;23;20216;-84
2024/01/19 06:30:50;;;;;;;3.83;3.25;;;-1.60;99.90;;;;;;6137083;23;20256;-83
2024/01/19 06:33:17;;;;;;;11.20;3.92;;;-1.60;99.90;;;;;;6138543;23;20189;-83
2024/01/19 06:35:43;;;;;;;4.35;3.88;;;-1.60;99.90;;;;;;6140959;23;20201;-85
2024/01/19 06:38:10;;;;;;;5.07;3.58;;;-1.60;99.90;;;;;;6147083;23;20181;-85
2024/01/19 06:40:37;;;;;;;6.97;4.35;;;-1.60;99.90;;;;;;6140469;23;20181;-84
2024/01/19 06:43:04;;;;;;;5.45;4.57;;;-1.50;99.90;;;;;;6137454;23;20192;-84
2024/01/19 06:45:31;;;;;;;5.57;3.60;;;-1.50;99.90;;;;;;6136579;23;20232;-85
2024/01/19 06:47:59;;;;;;;3.70;3.30;;;-1.40;99.90;;;;;;6136727;23;20188;-85
2024/01/19 06:50:26;;;;;;;9.20;4.30;;;-1.40;99.90;;;;;;6136276;23;20255;-85
2024/01/19 06:52:53;;;;;;;13.82;4.60;;;-1.40;99.90;;;;;;6135943;23;20209;-85
2024/01/19 06:55:24;;;;;;;4.30;3.95;;;-1.40;99.90;;;;;;6135400;23;20209;-84
2024/01/19 06:57:51;;;;;;;7.10;4.00;;;-1.30;99.90;;;;;;6141007;23;20165;-84
2024/01/19 07:00:19;;;;;;;5.07;4.03;;;-1.30;99.90;;;;;;6138006;23;20209;-85
2024/01/19 07:02:46;;;;;;;10.57;6.03;;;-1.30;99.90;;;;;;6142975;23;20228;-85
2024/01/19 07:05:14;;;;;;;7.85;4.45;;;-1.30;99.90;;;;;;6143064;23;20208;-84
2024/01/19 07:07:44;;;;;;;5.75;3.65;;;-1.20;99.90;;;;;;6143724;23;20177;-84
2024/01/19 07:10:11;;;;;;;7.25;3.67;;;-1.20;99.90;;;;;;6138154;23;20508;-85
2024/01/19 07:12:38;;;;;;;4.05;3.75;;;-1.20;99.90;;;;;;6136877;23;20177;-86
2024/01/19 07:15:07;;;;;;;6.70;4.40;;;-1.30;99.90;;;;;;6135197;23;20283;-84
2024/01/19 07:17:33;;;;;;;6.22;4.55;;;-1.30;99.90;;;;;;6135806;23;20199;-84
2024/01/19 07:20:00;;;;;;;6.70;4.25;;;-1.30;99.90;;;;;;6135359;23;20264;-85
2024/01/19 07:22:30;;;;;;;6.30;4.70;;;-1.40;99.90;;;;;;6134735;23;20181;-84
2024/01/19 07:24:57;;;;;;;7.20;4.38;;;-1.40;99.90;;;;;;6137507;23;20208;-85
2024/01/19 07:27:24;;;;;;;7.68;3.75;;;-1.40;99.90;;;;;;6139191;23;20209;-84
2024/01/19 07:29:50;;;;;;;5.57;4.30;;;-1.50;99.90;;;;;;6135194;23;20219;-84
2024/01/19 07:32:19;;;;;;;8.95;4.22;;;-1.50;99.90;;;;;;6135773;23;20231;-84
2024/01/19 07:34:46;;;;;;;9.13;4.32;;;-1.50;99.90;;;;;;6135413;23;20255;-84
2024/01/19 07:37:13;;;;;;;8.05;4.70;;;-1.60;99.90;;;;;;6134002;23;20256;-85
2024/01/19 07:39:41;;;;;;;4.72;4.32;;;-1.50;99.90;;;;;;6132846;23;20213;-83
2024/01/19 07:42:08;;;;;;;9.25;5.00;;;-1.50;99.90;;;;;;6137220;23;20563;-84
2024/01/19 07:44:35;;;;;;;5.90;4.82;;;-1.50;99.90;;;;;;6133937;23;20216;-83
2024/01/19 07:47:01;;;;;;;8.85;5.00;;;-1.50;99.90;;;;;;6133719;23;20201;-84
2024/01/19 07:49:28;;;;;;;7.25;4.80;;;-1.50;99.90;;;;;;6134437;23;20237;-87
2024/01/19 07:51:55;;;;;;;7.18;4.88;;;-1.40;99.90;;;;;;6136621;23;20216;-83
2024/01/19 07:54:22;;;;;;;10.18;4.68;;;-1.40;99.90;;;;;;6136580;23;20177;-84
2024/01/19 07:56:50;;;;;;;8.45;5.43;;;-1.40;99.90;;;;;;6134368;23;20201;-83
2024/01/19 07:59:17;;;;;;;14.30;5.38;;;-1.40;99.90;;;;;;6153886;23;20204;-83
2024/01/19 08:01:44;;;;;;;9.98;4.57;;;-1.30;99.90;;;;;;6152011;23;20170;-84
2024/01/19 08:04:11;;;;;;;8.88;5.95;;;-1.30;99.90;;;;;;6139022;23;20216;-86
2024/01/19 08:06:37;;;;;;;6.63;5.03;;;-1.30;99.90;;;;;;6148181;23;20197;-85
2024/01/19 08:09:05;;;;;;;8.13;4.80;;;-1.20;99.90;;;;;;6137110;23;20245;-85
2024/01/19 08:11:32;;;;;;;7.72;3.63;;;-1.20;99.90;;;;;;6137145;23;20232;-86
2024/01/19 08:14:00;;;;;;;11.32;4.78;;;-1.10;99.90;;;;;;6133235;23;20524;-85
2024/01/19 08:16:27;;;;;;;8.30;5.25;;;-1.00;99.90;;;;;;6133626;23;20197;-85
2024/01/19 08:18:56;;;;;;;5.78;4.60;;;-1.00;99.90;;;;;;6134720;23;20181;-85
2024/01/19 08:21:23;;;;;;;12.40;6.30;;;-0.90;99.90;;;;;;6139136;23;20184;-85
2024/01/19 08:23:50;;;;;;;10.00;5.50;;;-0.80;99.90;;;;;;6146439;23;20187;-84
2024/01/19 08:26:20;;;;;;;5.18;4.38;;;-0.80;99.90;;;;;;6142987;23;20204;-84
2024/01/19 08:28:47;;;;;;;5.95;5.32;;;-0.70;99.90;;;;;;6138918;23;20181;-84
2024/01/19 08:31:15;;;;;;;9.02;5.38;;;-0.70;99.90;;;;;;6136465;23;20612;-85
2024/01/19 08:33:42;;;;;;;10.57;6.20;;;-0.70;99.90;;;;;;6149577;23;20184;-86
2024/01/19 08:36:09;;;;;;;6.65;4.38;;;-0.70;99.90;;;;;;6153079;23;20201;-84
2024/01/19 08:38:36;;;;;;;6.82;4.78;;;-0.60;99.90;;;;;;6152043;23;20189;-84
2024/01/19 08:41:02;;;;;;;7.90;4.97;;;-0.50;99.90;;;;;;6153509;23;20177;-83
2024/01/19 08:43:29;;;;;;;6.05;5.13;;;-0.40;99.90;;;;;;6151212;23;20648;-82
2024/01/19 08:45:56;;;;;;;7.30;6.00;;;-0.30;99.90;;;;;;6151248;23;20200;-84
2024/01/19 08:48:25;;;;;;;8.18;5.40;;;-0.30;99.90;;;;;;6151744;23;20184;-84
2024/01/19 08:50:52;;;;;;;11.18;5.63;;;-0.30;99.90;;;;;;6148724;23;20233;-83
2024/01/19 08:53:19;;;;;;;8.50;6.03;;;-0.30;99.90;;;;;;6137877;23;20240;-84
2024/01/19 08:55:46;;;;;;;16.08;6.15;;;-0.20;99.90;;;;;;6139804;23;20244;-84
2024/01/19 08:58:14;;;;;;;11.20;6.18;;;-0.20;99.90;;;;;;6146638;23;20161;-83
2024/01/19 09:00:41;;;;;;;7.47;6.05;;;-0.20;99.90;;;;;;6142943;23;20181;-85
2024/01/19 09:03:08;;;;;;;11.20;6.18;;;-0.20;99.90;;;;;;6139504;23;20491;-84
2024/01/19 09:05:36;;;;;;;10.70;7.00;;;-0.20;99.90;;;;;;6138905;23;20200;-84
2024/01/19 09:08:04;;;;;;;10.50;5.60;;;-0.20;99.90;;;;;;6140899;23;20177;-84
2024/01/19 09:10:31;;;;;;;9.82;5.68;;;-0.20;99.90;;;;;;6140835;23;20208;-84
2024/01/19 09:12:57;;;;;;;6.75;5.82;;;-0.10;99.90;;;;;;6144227;23;20644;-85
2024/01/19 09:15:24;;;;;;;8.18;5.15;;;0.00;99.90;;;;;;6144867;23;20205;-85
2024/01/19 09:17:51;;;;;;;8.55;6.32;;;0.00;99.90;;;;;;6142236;23;20199;-85
2024/01/19 09:20:18;;;;;;;11.40;6.18;;;0.00;99.90;;;;;;6142460;23;20505;-83
2024/01/19 09:22:46;;;;;;;8.77;5.90;;;0.10;99.90;;;;;;6145224;23;20205;-83
2024/01/19 09:25:13;;;;;;;10.98;6.60;;;0.10;99.90;;;;;;6141495;23;20276;-82
2024/01/19 09:27:40;;;;;;;8.00;5.68;;;0.10;99.90;;;;;;6136385;23;20177;-81
2024/01/19 09:30:08;;;;;;;8.90;6.63;;;0.20;99.90;;;;;;6133319;23;20244;-83
2024/01/19 09:32:35;;;;;;;9.55;6.07;;;0.20;99.90;;;;;;6135672;23;20181;-83
2024/01/19 09:35:02;;;;;;;9.55;6.15;;;0.20;99.90;;;;;;6134422;23;20209;-82
2024/01/19 09:37:29;;;;;;;12.68;8.00;;;0.20;99.90;;;;;;6134865;23;20185;-83
2024/01/19 09:39:57;;;;;;;9.02;5.93;;;0.20;94.50;;;;;;6134327;23;20204;-83
2024/01/19 09:42:28;;;;;;;7.70;6.25;;;0.30;99.90;;;;;;6134305;23;20183;-83
2024/01/19 09:45:02;;;;;;;11.05;6.28;;;0.30;57.60;;;;;;6135145;23;20224;-83
2024/01/19 09:47:43;;;;;;;12.98;7.07;;;0.40;97.30;;;;;;6136070;23;20161;-82
2024/01/19 09:50:12;;;;;;;8.70;6.00;;;0.40;47.50;;;;;;6135791;23;20165;-83
2024/01/19 09:52:44;;;;;;;8.57;6.72;;;0.40;85.50;;;;;;6142089;23;20174;-82
2024/01/19 09:55:12;;;;;;;7.78;6.10;;;0.50;47.00;;;;;;6151472;23;20209;-83
2024/01/19 09:57:46;;;;;;;10.45;6.53;;;0.50;8.90;;;;;;6151345;23;20208;-83
2024/01/19 10:00:14;;;;;;;7.75;5.65;;;0.50;1.00;;;;;;6147121;23;20189;-83
2024/01/19 10:02:46;;;;;;;7.53;5.45;;;0.50;1.00;;;;;;6137918;23;20213;-83
2024/01/19 10:05:13;;;;;;;10.65;6.55;;;0.50;1.00;;;;;;6134498;23;20201;-83
2024/01/19 10:07:42;;;;;;;13.73;7.15;;;0.60;1.00;;;;;;6135012;23;20256;-84
2024/01/19 10:10:09;;;;;;;6.80;5.68;;;0.60;1.00;;;;;;6136050;23;20188;-84
2024/01/19 10:12:38;;;;;;;12.23;6.57;;;0.70;1.00;;;;;;6141479;23;20169;-84
2024/01/19 10:15:07;;;;;;;11.18;7.45;;;0.70;1.00;;;;;;6146622;23;20605;-83
2024/01/19 10:17:35;;;;;;;10.57;6.90;;;0.70;1.00;;;;;;6140385;23;20197;-82
2024/01/19 10:20:03;;;;;;;7.82;6.25;;;0.80;1.00;;;;;;6140262;23;20181;-83
2024/01/19 10:22:30;;;;;;;7.95;6.97;;;0.80;1.00;;;;;;6136857;23;20204;-84
2024/01/19 10:25:02;;;;;;;9.65;5.00;;;0.80;1.00;;;;;;6136010;23;20251;-83
2024/01/19 10:27:45;;;;;;;6.40;5.45;;;0.80;1.00;;;;;;6141786;23;20173;-83
2024/01/19 10:30:14;;;;;;;8.38;6.45;;;0.90;6.00;;;;;;6135636;23;20165;-83
2024/01/19 10:32:43;;;;;;;8.10;6.18;;;0.90;1.00;;;;;;6135144;23;20177;-83
2024/01/19 10:35:12;;;;;;;11.48;6.07;;;0.90;1.00;;;;;;6135400;23;20248;-82
2024/01/19 10:37:39;;;;;;;6.90;5.43;;;0.90;1.00;;;;;;6136144;23;20280;-83
2024/01/19 10:40:20;;;;;;;12.43;7.18;;;0.90;1.00;;;;;;6153011;23;20181;-84
2024/01/19 10:42:53;;;;;;;11.65;6.93;;;0.90;1.00;;;;;;6140939;23;20162;-83
2024/01/19 10:45:22;;;;;;;8.20;6.15;;;1.00;1.00;;;;;;6141040;23;20196;-82
2024/01/19 10:47:51;;;;;;;8.63;5.65;;;1.00;1.00;;;;;;6140960;23;20184;-85
2024/01/19 10:50:19;;;;;;;7.45;5.57;;;1.00;1.00;;;;;;6138551;23;20200;-83
2024/01/19 10:52:47;;;;;;;7.63;5.88;;;1.00;1.00;;;;;;6147576;23;20241;-82
2024/01/19 10:55:22;;;;;;;11.45;6.65;;;1.00;1.00;;;;;;6153210;23;20205;-83
2024/01/19 10:57:55;;;;;;;10.68;6.97;;;1.10;1.00;;;;;;6153175;23;20215;-83
2024/01/19 11:00:24;;;;;;;10.68;6.63;;;1.10;1.00;;;;;;6152430;23;20185;-82
2024/01/19 11:02:54;;;;;;;11.57;7.40;;;1.10;1.00;;;;;;6153300;23;20172;-83
2024/01/19 11:05:21;;;;;;;9.13;7.32;;;1.20;1.00;;;;;;6153255;23;20208;-83
2024/01/19 11:07:50;;;;;;;13.23;9.35;;;1.20;1.00;;;;;;6153745;23;20188;-82
2024/01/19 11:10:18;;;;;;;8.40;6.55;;;1.20;1.00;;;;;;6153914;23;20188;-80
2024/01/19 11:12:54;;;;;;;7.32;5.72;;;1.30;1.00;;;;;;6152482;23;20177;-82
2024/01/19 11:15:29;;;;;;;11.82;7.22;;;1.30;1.00;;;;;;6153673;23;20187;-84
2024/01/19 11:17:59;;;;;;;8.15;6.53;;;1.30;1.00;;;;;;6153555;23;20213;-83
2024/01/19 11:20:26;;;;;;;8.05;6.20;;;1.30;1.00;;;;;;6146102;23;20181;-83
2024/01/19 11:22:53;;;;;;;9.88;7.32;;;1.30;1.00;;;;;;6136299;23;20232;-84
2024/01/19 11:25:54;;;;;;;8.50;6.88;;;1.40;1.00;;;;;;6140517;23;20228;-82
2024/01/19 11:28:25;;;;;;;8.63;6.63;;;1.50;1.00;;;;;;6129738;23;20161;-82
2024/01/19 11:31:13;;;;;;;15.07;6.78;;;1.50;1.00;;;;;;6153498;23;20205;-83
2024/01/19 11:33:40;;;;;;;11.40;7.47;;;1.50;1.00;;;;;;6136367;23;20161;-83
2024/01/19 11:36:07;;;;;;;17.25;7.10;;;1.60;1.00;;;;;;6138832;23;20221;-83
2024/01/19 11:38:48;;;;;;;9.75;6.15;;;1.60;1.00;;;;;;6136088;23;20193;-84
2024/01/19 11:41:44;;;;;;;11.07;6.15;;;1.60;1.00;;;;;;6135514;23;20559;-82
2024/01/19 11:44:49;;;;;;;11.77;6.88;;;1.60;1.00;;;;;;6147465;23;20192;-81
2024/01/19 11:47:39;;;;;;;10.65;7.13;;;1.70;1.00;;;;;;6150177;23;20153;-81
2024/01/19 11:50:07;;;;;;;12.43;6.43;;;1.60;1.00;;;;;;6148078;23;20231;-81
2024/01/19 11:52:41;;;;;;;7.85;5.72;;;1.60;1.00;;;;;;6137663;23;20260;-82
2024/01/19 14:55:12;;;;;;;;;;;;;;;;;;;;;
2024/01/19 14:58:05;;;;;;;14.75;7.88;;;1.90;99.90;;;;;;6121600;23;20200;-89
2024/01/19 15:00:41;;;;;;;12.10;7.45;;;1.80;99.90;;;;;;6112154;23;20196;-89
2024/01/19 15:03:14;;;;;;;11.85;8.38;;;1.80;99.90;;;;;;6123536;23;20150;-88
2024/01/19 15:05:45;;;;;;;10.43;7.90;;;1.90;99.90;;;;;;6125515;23;20245;-89
2024/01/19 15:08:12;;;;;;;9.80;6.93;;;1.90;99.90;;;;;;6125339;23;20166;-88
2024/01/19 15:10:52;;;;;;;13.25;7.88;;;1.90;1.00;;;;;;6125660;23;20154;-89
2024/01/19 15:13:25;;;;;;;11.02;7.28;;;2.20;1.00;;;;;;6115242;23;20173;-89
2024/01/19 15:15:57;;;;;;;10.60;7.50;;;1.90;99.90;;;;;;6108245;23;20193;-89
2024/01/19 15:18:27;;;;;;;12.82;8.45;;;1.90;99.90;;;;;;6120493;23;20217;-89
2024/01/19 15:20:56;;;;;;;9.70;7.63;;;1.90;99.90;;;;;;6109472;23;20261;-89
2024/01/19 15:23:27;;;;;;;13.05;7.55;;;1.90;99.90;;;;;;6108099;23;20241;-89
2024/01/19 15:26:02;;;;;;;10.00;7.68;;;1.90;99.90;;;;;;6109948;23;20221;-89
2024/01/19 15:28:34;;;;;;;17.25;8.55;;;1.80;99.90;;;;;;6120721;23;20161;-89
2024/01/19 15:31:03;;;;;;;16.75;8.95;;;2.10;99.90;;;;;;6125487;23;20174;-89
2024/01/19 15:33:31;;;;;;;14.93;8.25;;;1.80;99.90;;;;;;6125330;23;20158;-88
2024/01/19 15:36:03;;;;;;;26.73;15.52;;;2.10;99.90;;;;;;6118185;23;20667;-89
2024/01/19 15:38:35;;;;;;;16.60;9.13;;;1.90;99.90;;;;;;6112327;23;20186;-89
2024/01/19 15:41:10;;;;;;;14.30;7.97;;;1.80;99.90;;;;;;6112735;23;20173;-88
2024/01/19 15:43:43;;;;;;;19.02;9.00;;;1.90;99.90;;;;;;6107527;23;20177;-90
2024/01/19 15:46:10;;;;;;;13.73;10.10;;;1.80;99.90;;;;;;6106589;23;20198;-88
2024/01/19 15:48:43;;;;;;;13.63;8.50;;;1.90;99.90;;;;;;6106637;23;20181;-88
2024/01/19 15:51:22;;;;;;;12.15;8.65;;;2.30;99.90;;;;;;6105962;23;20178;-88
2024/01/19 15:53:49;;;;;;;18.67;8.75;;;1.70;99.90;;;;;;6106280;23;20193;-89
2024/01/19 15:56:25;;;;;;;13.82;8.88;;;1.70;99.90;;;;;;6105887;23;20211;-89
2024/01/19 15:58:53;;;;;;;15.18;9.70;;;1.90;99.90;;;;;;6105228;23;20193;-89
2024/01/19 16:01:23;;;;;;;13.23;10.18;;;1.90;1.00;;;;;;6108864;23;20178;-89
2024/01/19 16:03:51;;;;;;;14.23;10.05;;;1.60;1.00;;;;;;6109825;23;20194;-88
2024/01/19 16:06:18;;;;;;;13.27;9.77;;;1.60;1.00;;;;;;6105096;23;20193;-88
2024/01/19 16:08:45;;;;;;;12.68;9.13;;;1.60;1.00;;;;;;6105355;23;20177;-89
2024/01/19 16:11:12;;;;;;;17.75;11.40;;;1.60;1.00;;;;;;6106003;23;20192;-89
2024/01/19 16:13:40;;;;;;;21.42;11.63;;;1.70;1.00;;;;;;6105918;23;20617;-89
2024/01/19 16:16:08;;;;;;;14.63;10.27;;;1.50;1.00;;;;;;6108351;23;20270;-89
2024/01/19 16:18:36;;;;;;;15.55;11.23;;;1.90;1.00;;;;;;6125004;23;20201;-88
2024/01/19 16:21:04;;;;;;;14.60;10.88;;;1.40;1.00;;;;;;6125324;23;20169;-88
2024/01/19 16:23:34;;;;;;;15.57;10.13;;;1.40;1.00;;;;;;6123546;23;20164;-88
2024/01/19 16:26:05;;;;;;;18.73;11.95;;;1.40;1.00;;;;;;6112944;23;20308;-88
2024/01/19 16:28:32;;;;;;;15.93;12.02;;;1.40;1.00;;;;;;6112110;23;20200;-88
2024/01/19 16:31:02;;;;;;;21.30;11.80;;;1.60;1.00;;;;;;6110050;23;20189;-89
2024/01/19 16:33:31;;;;;;;20.55;12.05;;;1.70;1.00;;;;;;6116553;23;20166;-89
2024/01/19 16:35:58;;;;;;;15.32;10.90;;;1.30;1.00;;;;;;6115991;23;20193;-88
2024/01/19 16:38:28;;;;;;;17.33;11.77;;;1.30;1.00;;;;;;6108175;23;20194;-88
2024/01/19 16:40:55;;;;;;;18.48;12.27;;;1.30;1.00;;;;;;6109180;23;20178;-91
2024/01/19 21:39:04;;;;;;;;;;;;;;;;;;;;;
2024/01/19 21:41:34;;;;;;;14.63;8.68;;;0.10;99.90;;;;;;6138034;23;20173;-89
2024/01/19 23:46:32;;;;;;;16.33;7.50;;;-0.10;99.90;;;;;;6140496;23;20160;-89
2024/01/19 23:53:06;;;;;;;11.63;6.43;;;0.00;99.90;;;;;;6023977;23;20184;-89
2024/01/19 23:55:44;;;;;;;9.65;5.97;;;0.00;99.90;;;;;;6133998;23;20179;-89
2024/01/19 23:58:17;;;;;;;13.90;7.38;;;0.00;99.90;;;;;;6133523;23;20200;-90
